sensor_id;sensor_type;location;lat;lon;timestamp;temperature;humidity
68189;DHT22;66299;47.514;19.218;2023-06-24T00:01:07;17.65;98.23
68189;DHT22;66299;47.514;19.218;2023-06-24T00:03:40;17.66;98.75
68189;DHT22;66299;47.514;19.218;2023-06-24T00:06:17;17.73;98.49
68189;DHT22;66299;47.514;19.218;2023-06-24T00:08:49;17.65;98.50
68189;DHT22;66299;47.514;19.218;2023-06-24T00:11:18;17.67;98.63
68189;DHT22;66299;47.514;19.218;2023-06-24T00:13:48;17.67;98.43
68189;DHT22;66299;47.514;19.218;2023-06-24T00:16:18;17.73;98.24
68189;DHT22;66299;47.514;19.218;2023-06-24T00:18:57;17.76;98.48
68189;DHT22;66299;47.514;19.218;2023-06-24T00:21:34;17.79;97.97
68189;DHT22;66299;47.514;19.218;2023-06-24T00:24:06;17.80;98.49
68189;DHT22;66299;47.514;19.218;2023-06-24T00:26:39;17.87;97.92
68189;DHT22;66299;47.514;19.218;2023-06-24T00:29:10;17.83;97.43
68189;DHT22;66299;47.514;19.218;2023-06-24T00:31:39;17.82;97.81
68189;DHT22;66299;47.514;19.218;2023-06-24T00:34:10;17.84;97.82
68189;DHT22;66299;47.514;19.218;2023-06-24T00:36:39;17.84;98.41
68189;DHT22;66299;47.514;19.218;2023-06-24T00:39:12;17.79;98.98
68189;DHT22;66299;47.514;19.218;2023-06-24T00:41:46;17.73;98.19
68189;DHT22;66299;47.514;19.218;2023-06-24T00:44:19;17.70;98.56
68189;DHT22;66299;47.514;19.218;2023-06-24T00:46:49;17.63;98.52
68189;DHT22;66299;47.514;19.218;2023-06-24T00:49:23;17.59;97.99
68189;DHT22;66299;47.514;19.218;2023-06-24T00:51:54;17.57;98.61
68189;DHT22;66299;47.514;19.218;2023-06-24T00:54:31;17.63;98.09
68189;DHT22;66299;47.514;19.218;2023-06-24T00:57:00;17.67;96.80
68189;DHT22;66299;47.514;19.218;2023-06-24T00:59:30;17.70;96.42
68189;DHT22;66299;47.514;19.218;2023-06-24T01:02:02;17.79;96.48
68189;DHT22;66299;47.514;19.218;2023-06-24T01:04:32;17.69;96.28
68189;DHT22;66299;47.514;19.218;2023-06-24T01:07:02;17.56;98.87
68189;DHT22;66299;47.514;19.218;2023-06-24T01:09:36;17.53;97.76
68189;DHT22;66299;47.514;19.218;2023-06-24T01:12:05;17.52;97.27
68189;DHT22;66299;47.514;19.218;2023-06-24T01:14:35;17.50;97.54
68189;DHT22;66299;47.514;19.218;2023-06-24T01:17:11;17.46;96.54
68189;DHT22;66299;47.514;19.218;2023-06-24T01:19:55;17.46;96.13
68189;DHT22;66299;47.514;19.218;2023-06-24T01:22:48;17.56;95.75
68189;DHT22;66299;47.514;19.218;2023-06-24T01:25:37;17.52;96.25
68189;DHT22;66299;47.514;19.218;2023-06-24T01:28:28;17.56;95.88
68189;DHT22;66299;47.514;19.218;2023-06-24T01:31:20;17.45;96.20
68189;DHT22;66299;47.514;19.218;2023-06-24T01:33:58;17.36;96.61
68189;DHT22;66299;47.514;19.218;2023-06-24T01:36:37;17.25;97.05
68189;DHT22;66299;47.514;19.218;2023-06-24T01:39:09;17.31;96.39
68189;DHT22;66299;47.514;19.218;2023-06-24T01:41:40;17.27;97.52
68189;DHT22;66299;47.514;19.218;2023-06-24T01:44:17;17.21;98.50
68189;DHT22;66299;47.514;19.218;2023-06-24T01:46:51;17.08;99.43
68189;DHT22;66299;47.514;19.218;2023-06-24T01:49:23;17.03;99.99
68189;DHT22;66299;47.514;19.218;2023-06-24T01:52:00;16.91;99.99
68189;DHT22;66299;47.514;19.218;2023-06-24T01:54:34;16.91;99.84
68189;DHT22;66299;47.514;19.218;2023-06-24T01:57:09;16.95;99.99
68189;DHT22;66299;47.514;19.218;2023-06-24T01:59:46;16.94;99.98
68189;DHT22;66299;47.514;19.218;2023-06-24T02:02:19;16.87;99.99
68189;DHT22;66299;47.514;19.218;2023-06-24T02:04:49;16.90;99.99
68189;DHT22;66299;47.514;19.218;2023-06-24T02:07:21;16.92;99.99
68189;DHT22;66299;47.514;19.218;2023-06-24T02:09:51;16.91;99.99
68189;DHT22;66299;47.514;19.218;2023-06-24T02:12:20;16.84;99.99
68189;DHT22;66299;47.514;19.218;2023-06-24T02:14:51;16.73;99.99
68189;DHT22;66299;47.514;19.218;2023-06-24T02:17:24;16.69;99.99
68189;DHT22;66299;47.514;19.218;2023-06-24T02:20:02;16.67;99.99
68189;DHT22;66299;47.514;19.218;2023-06-24T02:22:32;16.77;99.99
68189;DHT22;66299;47.514;19.218;2023-06-24T02:25:04;16.85;99.99
68189;DHT22;66299;47.514;19.218;2023-06-24T02:27:43;16.74;99.99
68189;DHT22;66299;47.514;19.218;2023-06-24T02:30:14;16.76;99.99
68189;DHT22;66299;47.514;19.218;2023-06-24T02:32:46;16.66;99.99
68189;DHT22;66299;47.514;19.218;2023-06-24T02:35:15;16.69;99.99
68189;DHT22;66299;47.514;19.218;2023-06-24T02:37:43;16.71;99.99
68189;DHT22;66299;47.514;19.218;2023-06-24T02:40:13;16.73;99.99
68189;DHT22;66299;47.514;19.218;2023-06-24T02:42:42;16.76;99.99
68189;DHT22;66299;47.514;19.218;2023-06-24T02:45:13;16.74;99.99
68189;DHT22;66299;47.514;19.218;2023-06-24T02:47:45;16.70;99.99
68189;DHT22;66299;47.514;19.218;2023-06-24T02:50:17;16.70;99.99
68189;DHT22;66299;47.514;19.218;2023-06-24T02:52:48;16.64;99.99
68189;DHT22;66299;47.514;19.218;2023-06-24T02:55:21;16.77;98.56
68189;DHT22;66299;47.514;19.218;2023-06-24T02:57:53;16.73;99.22
68189;DHT22;66299;47.514;19.218;2023-06-24T03:00:24;16.73;98.78
68189;DHT22;66299;47.514;19.218;2023-06-24T03:02:59;16.73;99.54
68189;DHT22;66299;47.514;19.218;2023-06-24T03:05:34;16.84;98.91
68189;DHT22;66299;47.514;19.218;2023-06-24T03:08:11;16.98;98.81
68189;DHT22;66299;47.514;19.218;2023-06-24T03:10:40;16.88;97.72
68189;DHT22;66299;47.514;19.218;2023-06-24T03:13:10;16.88;96.24
68189;DHT22;66299;47.514;19.218;2023-06-24T03:15:40;17.04;95.71
68189;DHT22;66299;47.514;19.218;2023-06-24T03:18:18;17.06;94.13
68189;DHT22;66299;47.514;19.218;2023-06-24T03:20:48;17.00;94.10
68189;DHT22;66299;47.514;19.218;2023-06-24T03:23:18;17.12;93.51
68189;DHT22;66299;47.514;19.218;2023-06-24T03:25:47;17.07;93.78
68189;DHT22;66299;47.514;19.218;2023-06-24T03:28:18;17.04;93.74
68189;DHT22;66299;47.514;19.218;2023-06-24T03:30:51;16.97;93.78
68189;DHT22;66299;47.514;19.218;2023-06-24T03:33:26;17.00;93.35
68189;DHT22;66299;47.514;19.218;2023-06-24T03:35:57;17.00;93.29
68189;DHT22;66299;47.514;19.218;2023-06-24T03:38:26;16.95;93.85
68189;DHT22;66299;47.514;19.218;2023-06-24T03:40:57;16.92;93.91
68189;DHT22;66299;47.514;19.218;2023-06-24T03:43:30;16.87;94.14
68189;DHT22;66299;47.514;19.218;2023-06-24T03:45:59;16.88;93.83
68189;DHT22;66299;47.514;19.218;2023-06-24T03:48:33;16.95;93.44
68189;DHT22;66299;47.514;19.218;2023-06-24T03:51:03;16.92;94.09
68189;DHT22;66299;47.514;19.218;2023-06-24T03:53:42;17.00;93.81
68189;DHT22;66299;47.514;19.218;2023-06-24T03:56:11;17.04;93.04
68189;DHT22;66299;47.514;19.218;2023-06-24T03:58:40;16.98;93.17
68189;DHT22;66299;47.514;19.218;2023-06-24T04:01:11;16.94;93.76
68189;DHT22;66299;47.514;19.218;2023-06-24T04:03:50;16.97;93.22
68189;DHT22;66299;47.514;19.218;2023-06-24T04:06:22;16.95;93.47
68189;DHT22;66299;47.514;19.218;2023-06-24T04:08:57;17.07;92.36
68189;DHT22;66299;47.514;19.218;2023-06-24T04:11:31;17.14;92.50
68189;DHT22;66299;47.514;19.218;2023-06-24T04:14:02;17.21;92.87
68189;DHT22;66299;47.514;19.218;2023-06-24T04:16:41;17.32;91.95
68189;DHT22;66299;47.514;19.218;2023-06-24T04:19:12;17.34;92.02
68189;DHT22;66299;47.514;19.218;2023-06-24T04:21:42;17.40;91.49
68189;DHT22;66299;47.514;19.218;2023-06-24T04:24:10;17.48;91.25
68189;DHT22;66299;47.514;19.218;2023-06-24T04:26:39;17.48;91.12
68189;DHT22;66299;47.514;19.218;2023-06-24T04:29:10;17.61;90.33
68189;DHT22;66299;47.514;19.218;2023-06-24T04:31:46;17.63;90.29
68189;DHT22;66299;47.514;19.218;2023-06-24T04:34:17;17.66;90.80
68189;DHT22;66299;47.514;19.218;2023-06-24T04:36:47;17.72;90.50
68189;DHT22;66299;47.514;19.218;2023-06-24T04:39:16;17.83;90.46
68189;DHT22;66299;47.514;19.218;2023-06-24T04:41:50;17.86;90.17
68189;DHT22;66299;47.514;19.218;2023-06-24T04:44:22;17.84;90.42
68189;DHT22;66299;47.514;19.218;2023-06-24T04:46:50;17.94;89.89
68189;DHT22;66299;47.514;19.218;2023-06-24T04:49:22;18.03;89.97
68189;DHT22;66299;47.514;19.218;2023-06-24T04:51:51;18.07;89.45
68189;DHT22;66299;47.514;19.218;2023-06-24T04:54:20;18.17;88.89
68189;DHT22;66299;47.514;19.218;2023-06-24T04:56:49;18.17;88.61
68189;DHT22;66299;47.514;19.218;2023-06-24T04:59:19;18.21;88.36
68189;DHT22;66299;47.514;19.218;2023-06-24T05:01:49;18.25;88.80
68189;DHT22;66299;47.514;19.218;2023-06-24T05:04:18;18.25;88.22
68189;DHT22;66299;47.514;19.218;2023-06-24T05:06:48;18.35;89.30
68189;DHT22;66299;47.514;19.218;2023-06-24T05:09:17;18.37;88.10
68189;DHT22;66299;47.514;19.218;2023-06-24T05:11:47;18.30;87.46
68189;DHT22;66299;47.514;19.218;2023-06-24T05:14:21;18.34;88.37
68189;DHT22;66299;47.514;19.218;2023-06-24T05:16:49;18.44;88.40
68189;DHT22;66299;47.514;19.218;2023-06-24T05:19:26;18.45;88.03
68189;DHT22;66299;47.514;19.218;2023-06-24T05:21:59;18.53;87.50
68189;DHT22;66299;47.514;19.218;2023-06-24T05:24:29;18.65;87.28
68189;DHT22;66299;47.514;19.218;2023-06-24T05:27:04;18.66;87.00
68189;DHT22;66299;47.514;19.218;2023-06-24T05:29:35;18.73;86.72
68189;DHT22;66299;47.514;19.218;2023-06-24T05:32:07;18.63;86.68
68189;DHT22;66299;47.514;19.218;2023-06-24T05:34:38;18.61;86.74
68189;DHT22;66299;47.514;19.218;2023-06-24T05:37:08;18.80;86.98
68189;DHT22;66299;47.514;19.218;2023-06-24T05:39:38;18.90;86.74
68189;DHT22;66299;47.514;19.218;2023-06-24T05:42:10;18.95;86.07
68189;DHT22;66299;47.514;19.218;2023-06-24T05:44:41;18.95;86.50
68189;DHT22;66299;47.514;19.218;2023-06-24T05:47:10;19.04;85.68
68189;DHT22;66299;47.514;19.218;2023-06-24T05:49:39;19.03;85.58
68189;DHT22;66299;47.514;19.218;2023-06-24T05:52:09;19.04;85.55
68189;DHT22;66299;47.514;19.218;2023-06-24T05:54:39;19.28;85.87
68189;DHT22;66299;47.514;19.218;2023-06-24T05:57:08;19.30;84.95
68189;DHT22;66299;47.514;19.218;2023-06-24T05:59:37;19.31;85.42
68189;DHT22;66299;47.514;19.218;2023-06-24T06:02:07;19.19;84.90
68189;DHT22;66299;47.514;19.218;2023-06-24T06:04:35;19.28;84.91
68189;DHT22;66299;47.514;19.218;2023-06-24T06:07:04;19.37;84.57
68189;DHT22;66299;47.514;19.218;2023-06-24T06:09:36;19.30;84.79
68189;DHT22;66299;47.514;19.218;2023-06-24T06:12:09;19.43;84.79
68189;DHT22;66299;47.514;19.218;2023-06-24T06:14:40;19.46;83.69
68189;DHT22;66299;47.514;19.218;2023-06-24T06:17:14;19.55;83.90
68189;DHT22;66299;47.514;19.218;2023-06-24T06:19:44;19.67;84.49
68189;DHT22;66299;47.514;19.218;2023-06-24T06:22:16;19.89;83.60
68189;DHT22;66299;47.514;19.218;2023-06-24T06:24:50;19.92;82.79
68189;DHT22;66299;47.514;19.218;2023-06-24T06:27:20;20.09;83.46
68189;DHT22;66299;47.514;19.218;2023-06-24T06:29:50;19.86;82.58
68189;DHT22;66299;47.514;19.218;2023-06-24T06:32:20;19.83;83.14
68189;DHT22;66299;47.514;19.218;2023-06-24T06:34:52;19.97;83.44
68189;DHT22;66299;47.514;19.218;2023-06-24T06:37:23;19.88;83.26
68189;DHT22;66299;47.514;19.218;2023-06-24T06:39:56;20.17;83.23
68189;DHT22;66299;47.514;19.218;2023-06-24T06:42:26;20.13;83.02
68189;DHT22;66299;47.514;19.218;2023-06-24T06:45:00;20.08;83.45
68189;DHT22;66299;47.514;19.218;2023-06-24T06:47:32;20.15;82.87
68189;DHT22;66299;47.514;19.218;2023-06-24T06:50:02;20.39;82.64
68189;DHT22;66299;47.514;19.218;2023-06-24T06:52:31;20.71;82.60
68189;DHT22;66299;47.514;19.218;2023-06-24T06:55:02;20.71;80.39
68189;DHT22;66299;47.514;19.218;2023-06-24T06:57:32;20.60;81.43
68189;DHT22;66299;47.514;19.218;2023-06-24T07:00:00;20.84;81.05
68189;DHT22;66299;47.514;19.218;2023-06-24T07:02:29;20.67;81.06
68189;DHT22;66299;47.514;19.218;2023-06-24T07:04:58;20.85;80.98
68189;DHT22;66299;47.514;19.218;2023-06-24T07:07:33;20.87;80.43
68189;DHT22;66299;47.514;19.218;2023-06-24T07:10:17;21.28;81.68
68189;DHT22;66299;47.514;19.218;2023-06-24T07:12:52;21.28;80.40
68189;DHT22;66299;47.514;19.218;2023-06-24T07:15:25;21.09;81.28
68189;DHT22;66299;47.514;19.218;2023-06-24T07:17:55;21.25;80.43
68189;DHT22;66299;47.514;19.218;2023-06-24T07:20:26;21.28;79.05
68189;DHT22;66299;47.514;19.218;2023-06-24T07:22:55;21.23;78.35
68189;DHT22;66299;47.514;19.218;2023-06-24T07:25:29;21.56;78.81
68189;DHT22;66299;47.514;19.218;2023-06-24T07:27:58;21.63;79.49
68189;DHT22;66299;47.514;19.218;2023-06-24T07:30:27;21.50;78.39
68189;DHT22;66299;47.514;19.218;2023-06-24T07:32:56;21.83;79.64
68189;DHT22;66299;47.514;19.218;2023-06-24T07:35:26;21.70;78.45
68189;DHT22;66299;47.514;19.218;2023-06-24T07:37:55;21.84;77.60
68189;DHT22;66299;47.514;19.218;2023-06-24T07:40:28;21.70;77.61
68189;DHT22;66299;47.514;19.218;2023-06-24T07:42:57;21.46;78.14
68189;DHT22;66299;47.514;19.218;2023-06-24T07:45:26;22.18;79.03
68189;DHT22;66299;47.514;19.218;2023-06-24T07:47:55;22.00;77.23
68189;DHT22;66299;47.514;19.218;2023-06-24T07:50:24;21.97;77.98
68189;DHT22;66299;47.514;19.218;2023-06-24T07:52:53;22.19;77.29
68189;DHT22;66299;47.514;19.218;2023-06-24T07:55:21;22.09;78.35
68189;DHT22;66299;47.514;19.218;2023-06-24T07:57:53;22.24;77.35
68189;DHT22;66299;47.514;19.218;2023-06-24T08:00:21;22.57;76.87
68189;DHT22;66299;47.514;19.218;2023-06-24T08:02:51;22.59;76.37
68189;DHT22;66299;47.514;19.218;2023-06-24T08:05:24;22.92;77.18
68189;DHT22;66299;47.514;19.218;2023-06-24T08:07:55;23.02;77.16
68189;DHT22;66299;47.514;19.218;2023-06-24T08:10:26;23.00;74.97
68189;DHT22;66299;47.514;19.218;2023-06-24T08:12:57;22.76;74.72
68189;DHT22;66299;47.514;19.218;2023-06-24T08:15:25;22.62;76.06
68189;DHT22;66299;47.514;19.218;2023-06-24T08:17:54;22.97;75.74
68189;DHT22;66299;47.514;19.218;2023-06-24T08:20:23;23.23;77.05
68189;DHT22;66299;47.514;19.218;2023-06-24T08:22:56;23.04;75.15
68189;DHT22;66299;47.514;19.218;2023-06-24T08:25:24;23.21;74.08
68189;DHT22;66299;47.514;19.218;2023-06-24T08:27:54;23.47;73.88
68189;DHT22;66299;47.514;19.218;2023-06-24T08:30:24;23.25;74.10
68189;DHT22;66299;47.514;19.218;2023-06-24T08:32:52;22.87;74.31
68189;DHT22;66299;47.514;19.218;2023-06-24T08:35:21;23.24;74.65
68189;DHT22;66299;47.514;19.218;2023-06-24T08:37:49;23.34;74.24
68189;DHT22;66299;47.514;19.218;2023-06-24T08:40:18;22.84;72.86
68189;DHT22;66299;47.514;19.218;2023-06-24T08:42:48;23.15;74.14
68189;DHT22;66299;47.514;19.218;2023-06-24T08:45:20;23.52;74.40
68189;DHT22;66299;47.514;19.218;2023-06-24T08:47:50;23.41;73.01
68189;DHT22;66299;47.514;19.218;2023-06-24T08:50:19;23.27;73.73
68189;DHT22;66299;47.514;19.218;2023-06-24T08:52:51;23.66;73.40
68189;DHT22;66299;47.514;19.218;2023-06-24T08:55:23;23.78;74.86
68189;DHT22;66299;47.514;19.218;2023-06-24T08:57:53;24.08;73.95
68189;DHT22;66299;47.514;19.218;2023-06-24T09:00:24;23.51;74.00
68189;DHT22;66299;47.514;19.218;2023-06-24T09:02:56;23.32;73.83
68189;DHT22;66299;47.514;19.218;2023-06-24T09:05:27;23.21;73.63
68189;DHT22;66299;47.514;19.218;2023-06-24T09:07:57;23.27;73.23
68189;DHT22;66299;47.514;19.218;2023-06-24T09:10:31;23.41;73.55
68189;DHT22;66299;47.514;19.218;2023-06-24T09:13:01;23.32;73.35
68189;DHT22;66299;47.514;19.218;2023-06-24T09:15:31;23.38;74.14
68189;DHT22;66299;47.514;19.218;2023-06-24T09:18:04;23.63;75.15
68189;DHT22;66299;47.514;19.218;2023-06-24T09:20:34;23.45;74.87
68189;DHT22;66299;47.514;19.218;2023-06-24T09:23:11;23.20;73.87
68189;DHT22;66299;47.514;19.218;2023-06-24T09:25:40;23.34;75.19
68189;DHT22;66299;47.514;19.218;2023-06-24T09:28:08;23.21;75.33
68189;DHT22;66299;47.514;19.218;2023-06-24T09:30:37;23.38;75.77
68189;DHT22;66299;47.514;19.218;2023-06-24T09:33:11;23.37;75.33
68189;DHT22;66299;47.514;19.218;2023-06-24T09:35:39;23.42;74.42
68189;DHT22;66299;47.514;19.218;2023-06-24T09:38:12;23.54;76.65
68189;DHT22;66299;47.514;19.218;2023-06-24T09:40:46;23.85;74.89
68189;DHT22;66299;47.514;19.218;2023-06-24T09:43:20;23.59;74.10
68189;DHT22;66299;47.514;19.218;2023-06-24T09:45:51;23.89;74.26
68189;DHT22;66299;47.514;19.218;2023-06-24T09:48:25;24.08;74.46
68189;DHT22;66299;47.514;19.218;2023-06-24T09:50:58;24.14;72.95
68189;DHT22;66299;47.514;19.218;2023-06-24T09:53:30;23.73;73.21
68189;DHT22;66299;47.514;19.218;2023-06-24T09:56:03;24.08;74.11
68189;DHT22;66299;47.514;19.218;2023-06-24T09:58:36;23.52;74.92
68189;DHT22;66299;47.514;19.218;2023-06-24T10:01:09;23.88;74.24
68189;DHT22;66299;47.514;19.218;2023-06-24T10:03:41;24.09;74.84
68189;DHT22;66299;47.514;19.218;2023-06-24T10:06:10;23.98;74.36
68189;DHT22;66299;47.514;19.218;2023-06-24T10:08:38;23.62;74.34
68189;DHT22;66299;47.514;19.218;2023-06-24T10:11:08;23.85;75.04
68189;DHT22;66299;47.514;19.218;2023-06-24T10:13:39;23.90;73.76
68189;DHT22;66299;47.514;19.218;2023-06-24T10:16:08;24.27;73.57
68189;DHT22;66299;47.514;19.218;2023-06-24T10:18:42;24.44;74.43
68189;DHT22;66299;47.514;19.218;2023-06-24T10:21:14;24.10;75.32
68189;DHT22;66299;47.514;19.218;2023-06-24T10:23:53;23.88;74.16
68189;DHT22;66299;47.514;19.218;2023-06-24T10:26:24;25.04;71.54
68189;DHT22;66299;47.514;19.218;2023-06-24T10:29:11;25.30;71.71
68189;DHT22;66299;47.514;19.218;2023-06-24T10:31:51;24.33;70.84
68189;DHT22;66299;47.514;19.218;2023-06-24T10:34:27;24.50;70.44
68189;DHT22;66299;47.514;19.218;2023-06-24T10:36:58;24.91;71.61
68189;DHT22;66299;47.514;19.218;2023-06-24T10:39:40;25.61;71.00
68189;DHT22;66299;47.514;19.218;2023-06-24T10:42:28;25.63;68.38
68189;DHT22;66299;47.514;19.218;2023-06-24T10:44:57;25.61;69.01
68189;DHT22;66299;47.514;19.218;2023-06-24T10:47:27;25.40;68.71
68189;DHT22;66299;47.514;19.218;2023-06-24T10:49:57;24.60;71.14
68189;DHT22;66299;47.514;19.218;2023-06-24T10:52:26;25.47;69.80
68189;DHT22;66299;47.514;19.218;2023-06-24T10:54:57;26.15;67.86
68189;DHT22;66299;47.514;19.218;2023-06-24T10:57:28;26.17;67.67
68189;DHT22;66299;47.514;19.218;2023-06-24T10:59:57;26.32;67.35
68189;DHT22;66299;47.514;19.218;2023-06-24T11:02:26;25.63;69.72
68189;DHT22;66299;47.514;19.218;2023-06-24T11:04:59;25.91;68.70
68189;DHT22;66299;47.514;19.218;2023-06-24T11:07:31;27.18;66.08
68189;DHT22;66299;47.514;19.218;2023-06-24T11:10:02;26.82;65.71
68189;DHT22;66299;47.514;19.218;2023-06-24T11:12:39;28.02;63.37
68189;DHT22;66299;47.514;19.218;2023-06-24T11:15:09;26.75;66.58
68189;DHT22;66299;47.514;19.218;2023-06-24T11:17:38;26.84;66.20
68189;DHT22;66299;47.514;19.218;2023-06-24T11:20:09;27.51;65.31
68189;DHT22;66299;47.514;19.218;2023-06-24T11:22:39;27.67;62.36
68189;DHT22;66299;47.514;19.218;2023-06-24T11:25:15;27.07;63.69
68189;DHT22;66299;47.514;19.218;2023-06-24T11:27:46;27.25;65.04
68189;DHT22;66299;47.514;19.218;2023-06-24T11:30:18;27.27;64.77
68189;DHT22;66299;47.514;19.218;2023-06-24T11:32:46;27.28;64.79
68189;DHT22;66299;47.514;19.218;2023-06-24T11:35:18;27.54;64.77
68189;DHT22;66299;47.514;19.218;2023-06-24T11:37:47;26.73;64.67
68189;DHT22;66299;47.514;19.218;2023-06-24T11:40:19;27.06;64.23
68189;DHT22;66299;47.514;19.218;2023-06-24T11:42:51;27.27;65.49
68189;DHT22;66299;47.514;19.218;2023-06-24T11:45:22;26.77;64.10
68189;DHT22;66299;47.514;19.218;2023-06-24T11:47:52;27.42;64.37
68189;DHT22;66299;47.514;19.218;2023-06-24T11:50:27;26.49;66.72
68189;DHT22;66299;47.514;19.218;2023-06-24T11:52:55;26.87;65.70
68189;DHT22;66299;47.514;19.218;2023-06-24T11:55:25;26.48;66.48
68189;DHT22;66299;47.514;19.218;2023-06-24T11:57:58;26.36;66.27
68189;DHT22;66299;47.514;19.218;2023-06-24T12:00:31;26.83;65.09
68189;DHT22;66299;47.514;19.218;2023-06-24T12:03:04;26.11;68.36
68189;DHT22;66299;47.514;19.218;2023-06-24T12:05:39;25.84;68.73
68189;DHT22;66299;47.514;19.218;2023-06-24T12:08:16;25.73;69.10
68189;DHT22;66299;47.514;19.218;2023-06-24T12:10:49;26.01;67.82
68189;DHT22;66299;47.514;19.218;2023-06-24T12:13:19;26.76;67.51
68189;DHT22;66299;47.514;19.218;2023-06-24T12:15:47;26.15;68.10
68189;DHT22;66299;47.514;19.218;2023-06-24T12:18:15;27.11;65.17
68189;DHT22;66299;47.514;19.218;2023-06-24T12:20:45;26.59;65.81
68189;DHT22;66299;47.514;19.218;2023-06-24T12:23:15;27.92;62.23
68189;DHT22;66299;47.514;19.218;2023-06-24T12:25:43;27.48;63.27
68189;DHT22;66299;47.514;19.218;2023-06-24T12:28:12;28.02;63.05
68189;DHT22;66299;47.514;19.218;2023-06-24T12:30:40;27.66;62.74
68189;DHT22;66299;47.514;19.218;2023-06-24T12:33:09;27.35;64.73
68189;DHT22;66299;47.514;19.218;2023-06-24T12:35:40;26.52;66.82
68189;DHT22;66299;47.514;19.218;2023-06-24T12:38:12;26.97;66.33
68189;DHT22;66299;47.514;19.218;2023-06-24T12:40:43;26.83;67.61
68189;DHT22;66299;47.514;19.218;2023-06-24T12:43:17;26.36;68.51
68189;DHT22;66299;47.514;19.218;2023-06-24T12:45:49;27.00;67.51
68189;DHT22;66299;47.514;19.218;2023-06-24T12:48:18;26.55;67.78
68189;DHT22;66299;47.514;19.218;2023-06-24T12:50:47;26.18;67.30
68189;DHT22;66299;47.514;19.218;2023-06-24T12:53:26;26.31;68.18
68189;DHT22;66299;47.514;19.218;2023-06-24T12:55:56;26.55;67.01
68189;DHT22;66299;47.514;19.218;2023-06-24T12:58:25;26.31;66.72
68189;DHT22;66299;47.514;19.218;2023-06-24T13:00:55;26.46;67.36
68189;DHT22;66299;47.514;19.218;2023-06-24T13:03:23;26.38;67.13
68189;DHT22;66299;47.514;19.218;2023-06-24T13:05:52;26.42;67.35
68189;DHT22;66299;47.514;19.218;2023-06-24T13:08:25;26.09;68.96
68189;DHT22;66299;47.514;19.218;2023-06-24T13:10:54;26.50;68.10
68189;DHT22;66299;47.514;19.218;2023-06-24T13:13:22;26.36;68.12
68189;DHT22;66299;47.514;19.218;2023-06-24T13:15:51;25.98;69.17
68189;DHT22;66299;47.514;19.218;2023-06-24T13:18:20;26.31;67.77
68189;DHT22;66299;47.514;19.218;2023-06-24T13:20:52;27.25;66.58
68189;DHT22;66299;47.514;19.218;2023-06-24T13:23:42;27.07;65.99
68189;DHT22;66299;47.514;19.218;2023-06-24T13:26:10;26.73;66.60
68189;DHT22;66299;47.514;19.218;2023-06-24T13:28:42;27.46;65.57
68189;DHT22;66299;47.514;19.218;2023-06-24T13:31:11;27.18;65.63
68189;DHT22;66299;47.514;19.218;2023-06-24T13:33:48;27.11;65.32
68189;DHT22;66299;47.514;19.218;2023-06-24T13:36:29;27.49;65.28
68189;DHT22;66299;47.514;19.218;2023-06-24T13:38:59;27.66;64.12
68189;DHT22;66299;47.514;19.218;2023-06-24T13:41:28;27.03;66.91
68189;DHT22;66299;47.514;19.218;2023-06-24T13:43:59;27.41;66.72
68189;DHT22;66299;47.514;19.218;2023-06-24T13:46:30;26.59;66.85
68189;DHT22;66299;47.514;19.218;2023-06-24T13:48:59;26.69;67.82
68189;DHT22;66299;47.514;19.218;2023-06-24T13:51:32;26.94;66.34
68189;DHT22;66299;47.514;19.218;2023-06-24T13:54:01;26.97;67.16
68189;DHT22;66299;47.514;19.218;2023-06-24T13:56:30;26.91;67.53
68189;DHT22;66299;47.514;19.218;2023-06-24T13:59:01;27.00;67.23
68189;DHT22;66299;47.514;19.218;2023-06-24T14:01:32;26.76;67.29
68189;DHT22;66299;47.514;19.218;2023-06-24T14:04:02;26.76;66.33
68189;DHT22;66299;47.514;19.218;2023-06-24T14:06:30;26.53;67.60
68189;DHT22;66299;47.514;19.218;2023-06-24T14:09:01;26.33;69.29
68189;DHT22;66299;47.514;19.218;2023-06-24T14:11:31;26.32;68.82
68189;DHT22;66299;47.514;19.218;2023-06-24T14:14:02;26.86;68.57
68189;DHT22;66299;47.514;19.218;2023-06-24T14:16:31;26.56;68.49
68189;DHT22;66299;47.514;19.218;2023-06-24T14:19:00;26.17;68.83
68189;DHT22;66299;47.514;19.218;2023-06-24T14:21:29;26.48;69.68
68189;DHT22;66299;47.514;19.218;2023-06-24T14:23:58;26.56;68.83
68189;DHT22;66299;47.514;19.218;2023-06-24T14:26:43;26.17;69.75
68189;DHT22;66299;47.514;19.218;2023-06-24T14:29:17;25.98;69.50
68189;DHT22;66299;47.514;19.218;2023-06-24T14:31:46;25.77;70.30
68189;DHT22;66299;47.514;19.218;2023-06-24T14:34:15;25.92;70.44
68189;DHT22;66299;47.514;19.218;2023-06-24T14:36:46;25.82;69.63
68189;DHT22;66299;47.514;19.218;2023-06-24T14:39:17;25.53;71.42
68189;DHT22;66299;47.514;19.218;2023-06-24T14:41:47;25.66;70.47
68189;DHT22;66299;47.514;19.218;2023-06-24T14:44:15;25.18;71.11
68189;DHT22;66299;47.514;19.218;2023-06-24T14:46:43;25.82;70.93
68189;DHT22;66299;47.514;19.218;2023-06-24T14:49:14;25.63;70.87
68189;DHT22;66299;47.514;19.218;2023-06-24T14:51:47;25.54;71.00
68189;DHT22;66299;47.514;19.218;2023-06-24T14:54:15;26.12;69.68
68189;DHT22;66299;47.514;19.218;2023-06-24T14:56:43;25.77;69.85
68189;DHT22;66299;47.514;19.218;2023-06-24T14:59:14;26.18;69.98
68189;DHT22;66299;47.514;19.218;2023-06-24T15:01:42;25.71;70.85
68189;DHT22;66299;47.514;19.218;2023-06-24T15:04:11;26.42;69.68
68189;DHT22;66299;47.514;19.218;2023-06-24T15:06:42;26.24;69.11
68189;DHT22;66299;47.514;19.218;2023-06-24T15:09:15;26.21;68.96
68189;DHT22;66299;47.514;19.218;2023-06-24T15:11:45;25.30;70.64
68189;DHT22;66299;47.514;19.218;2023-06-24T15:14:15;26.05;69.78
68189;DHT22;66299;47.514;19.218;2023-06-24T15:16:43;25.98;69.44
68189;DHT22;66299;47.514;19.218;2023-06-24T15:19:13;25.71;69.68
68189;DHT22;66299;47.514;19.218;2023-06-24T15:21:41;25.71;69.71
68189;DHT22;66299;47.514;19.218;2023-06-24T15:24:12;25.71;70.43
68189;DHT22;66299;47.514;19.218;2023-06-24T15:26:41;25.91;70.26
68189;DHT22;66299;47.514;19.218;2023-06-24T15:29:10;25.46;70.20
68189;DHT22;66299;47.514;19.218;2023-06-24T15:31:40;25.84;69.32
68189;DHT22;66299;47.514;19.218;2023-06-24T15:34:12;25.57;70.22
68189;DHT22;66299;47.514;19.218;2023-06-24T15:36:41;25.67;70.05
68189;DHT22;66299;47.514;19.218;2023-06-24T15:39:11;25.61;70.73
68189;DHT22;66299;47.514;19.218;2023-06-24T15:41:46;25.37;71.40